sensor_id;sensor_type;location;lat;lon;timestamp;pressure;altitude;pressure_sealevel;temperature;humidity
13015;BME280;6573;57.696;11.950;2023-05-11T00:01:17;101419.09;;;17.97;75.08
13015;BME280;6573;57.696;11.950;2023-05-11T00:03:47;101433.19;;;18.02;75.07
13015;BME280;6573;57.696;11.950;2023-05-11T00:06:16;101433.00;;;18.08;74.90
13015;BME280;6573;57.696;11.950;2023-05-11T00:08:44;101424.94;;;18.13;74.77
13015;BME280;6573;57.696;11.950;2023-05-11T00:11:13;101432.94;;;18.11;74.55
13015;BME280;6573;57.696;11.950;2023-05-11T00:13:44;101426.00;;;18.06;75.05
13015;BME280;6573;57.696;11.950;2023-05-11T00:16:12;101426.34;;;18.28;74.63
13015;BME280;6573;57.696;11.950;2023-05-11T00:18:41;101428.38;;;18.17;74.86
13015;BME280;6573;57.696;11.950;2023-05-11T00:21:12;101430.84;;;18.26;74.71
13015;BME280;6573;57.696;11.950;2023-05-11T00:23:40;101423.69;;;18.28;74.67
13015;BME280;6573;57.696;11.950;2023-05-11T00:26:09;101429.22;;;18.19;74.96
13015;BME280;6573;57.696;11.950;2023-05-11T00:28:37;101400.06;;;17.77;75.46
13015;BME280;6573;57.696;11.950;2023-05-11T00:31:07;101433.41;;;17.93;75.57
13015;BME280;6573;57.696;11.950;2023-05-11T00:33:36;101433.47;;;17.90;75.97
13015;BME280;6573;57.696;11.950;2023-05-11T00:36:05;101432.16;;;17.71;76.68
13015;BME280;6573;57.696;11.950;2023-05-11T00:38:35;101435.47;;;17.79;76.81
13015;BME280;6573;57.696;11.950;2023-05-11T00:41:07;101412.75;;;17.66;76.83
13015;BME280;6573;57.696;11.950;2023-05-11T00:43:35;101435.63;;;17.73;77.02
13015;BME280;6573;57.696;11.950;2023-05-11T00:46:04;101426.81;;;17.71;77.24
13015;BME280;6573;57.696;11.950;2023-05-11T00:48:34;101442.63;;;17.77;77.20
13015;BME280;6573;57.696;11.950;2023-05-11T00:51:03;101444.59;;;17.69;77.72
13015;BME280;6573;57.696;11.950;2023-05-11T00:53:32;101427.22;;;17.53;78.02
13015;BME280;6573;57.696;11.950;2023-05-11T00:56:04;101444.97;;;17.51;78.17
13015;BME280;6573;57.696;11.950;2023-05-11T00:58:32;101444.06;;;17.54;78.44
13015;BME280;6573;57.696;11.950;2023-05-11T01:01:01;101439.66;;;17.51;78.69
13015;BME280;6573;57.696;11.950;2023-05-11T01:03:30;101434.22;;;17.57;78.47
13015;BME280;6573;57.696;11.950;2023-05-11T01:06:07;101431.53;;;17.59;78.46
13015;BME280;6573;57.696;11.950;2023-05-11T01:08:41;101432.56;;;17.50;79.01
13015;BME280;6573;57.696;11.950;2023-05-11T01:11:13;101416.66;;;17.47;78.63
13015;BME280;6573;57.696;11.950;2023-05-11T01:13:47;101445.13;;;17.42;79.25
13015;BME280;6573;57.696;11.950;2023-05-11T01:16:20;101441.63;;;17.40;80.13
13015;BME280;6573;57.696;11.950;2023-05-11T01:18:53;101445.22;;;17.39;80.08
13015;BME280;6573;57.696;11.950;2023-05-11T01:21:26;101446.03;;;17.42;80.23
13015;BME280;6573;57.696;11.950;2023-05-11T01:27:39;101455.88;;;17.39;80.91
13015;BME280;6573;57.696;11.950;2023-05-11T01:30:25;101450.75;;;17.27;80.91
13015;BME280;6573;57.696;11.950;2023-05-11T01:32:58;101452.59;;;17.25;80.96
13015;BME280;6573;57.696;11.950;2023-05-11T01:35:32;101461.34;;;17.30;81.29
13015;BME280;6573;57.696;11.950;2023-05-11T01:38:04;101459.63;;;17.29;81.31
13015;BME280;6573;57.696;11.950;2023-05-11T01:40:35;101463.16;;;17.28;81.34
13015;BME280;6573;57.696;11.950;2023-05-11T01:43:08;101459.38;;;17.41;81.34
13015;BME280;6573;57.696;11.950;2023-05-11T01:45:45;101461.19;;;17.39;81.75
13015;BME280;6573;57.696;11.950;2023-05-11T01:48:19;101450.59;;;17.36;81.48
13015;BME280;6573;57.696;11.950;2023-05-11T01:50:53;101454.16;;;17.35;81.33
13015;BME280;6573;57.696;11.950;2023-05-11T01:53:26;101459.41;;;17.38;81.79
13015;BME280;6573;57.696;11.950;2023-05-11T01:55:56;101462.09;;;17.38;82.09
13015;BME280;6573;57.696;11.950;2023-05-11T01:58:26;101461.19;;;17.39;81.95
13015;BME280;6573;57.696;11.950;2023-05-11T02:00:57;101454.22;;;17.32;82.44
13015;BME280;6573;57.696;11.950;2023-05-11T02:03:30;101456.88;;;17.33;82.52
13015;BME280;6573;57.696;11.950;2023-05-11T02:06:01;101456.66;;;17.42;82.50
13015;BME280;6573;57.696;11.950;2023-05-11T02:08:33;101461.25;;;17.36;82.74
13015;BME280;6573;57.696;11.950;2023-05-11T02:11:03;101456.28;;;17.18;83.71
13015;BME280;6573;57.696;11.950;2023-05-11T02:13:38;101470.38;;;17.23;83.49
13015;BME280;6573;57.696;11.950;2023-05-11T02:16:10;101446.00;;;17.00;84.05
13015;BME280;6573;57.696;11.950;2023-05-11T02:18:40;101458.69;;;17.30;83.87
13015;BME280;6573;57.696;11.950;2023-05-11T02:21:10;101471.16;;;17.28;83.97
13015;BME280;6573;57.696;11.950;2023-05-11T02:23:40;101458.84;;;17.24;83.81
13015;BME280;6573;57.696;11.950;2023-05-11T02:26:10;101473.75;;;17.31;84.17
13015;BME280;6573;57.696;11.950;2023-05-11T02:28:39;101474.63;;;17.31;84.25
13015;BME280;6573;57.696;11.950;2023-05-11T02:31:19;101480.75;;;17.35;84.05
13015;BME280;6573;57.696;11.950;2023-05-11T02:33:50;101470.13;;;17.35;84.29
13015;BME280;6573;57.696;11.950;2023-05-11T02:36:22;101470.16;;;17.32;84.63
13015;BME280;6573;57.696;11.950;2023-05-11T02:38:57;101467.75;;;17.20;84.89
13015;BME280;6573;57.696;11.950;2023-05-11T02:41:29;101447.31;;;17.22;84.83
13015;BME280;6573;57.696;11.950;2023-05-11T02:44:02;101477.16;;;17.39;84.66
13015;BME280;6573;57.696;11.950;2023-05-11T02:46:34;101480.50;;;17.47;84.65
13015;BME280;6573;57.696;11.950;2023-05-11T02:49:07;101487.78;;;17.39;85.02
13015;BME280;6573;57.696;11.950;2023-05-11T02:51:37;101479.56;;;17.49;84.47
13015;BME280;6573;57.696;11.950;2023-05-11T02:54:07;101477.81;;;17.48;84.80
13015;BME280;6573;57.696;11.950;2023-05-11T02:56:40;101480.66;;;17.41;85.44
13015;BME280;6573;57.696;11.950;2023-05-11T02:59:09;101482.28;;;17.48;85.68
13015;BME280;6573;57.696;11.950;2023-05-11T03:01:39;101489.31;;;17.49;85.68
13015;BME280;6573;57.696;11.950;2023-05-11T03:04:10;101468.44;;;17.29;85.86
13015;BME280;6573;57.696;11.950;2023-05-11T03:06:39;101494.72;;;17.46;85.80
13015;BME280;6573;57.696;11.950;2023-05-11T03:09:08;101491.28;;;17.41;85.72
13015;BME280;6573;57.696;11.950;2023-05-11T03:11:36;101493.03;;;17.42;85.65
13015;BME280;6573;57.696;11.950;2023-05-11T03:14:06;101481.69;;;17.34;86.48
13015;BME280;6573;57.696;11.950;2023-05-11T03:16:40;101489.47;;;17.43;86.42
13015;BME280;6573;57.696;11.950;2023-05-11T03:19:10;101498.53;;;17.33;86.98
13015;BME280;6573;57.696;11.950;2023-05-11T03:21:40;101488.09;;;17.24;87.21
13015;BME280;6573;57.696;11.950;2023-05-11T03:24:09;101516.16;;;17.37;87.23
13015;BME280;6573;57.696;11.950;2023-05-11T03:26:38;101462.44;;;17.21;87.25
13015;BME280;6573;57.696;11.950;2023-05-11T03:29:09;101518.00;;;17.35;87.53
13015;BME280;6573;57.696;11.950;2023-05-11T03:31:40;101507.16;;;17.44;87.37
13015;BME280;6573;57.696;11.950;2023-05-11T03:34:09;101512.47;;;17.44;87.71
13015;BME280;6573;57.696;11.950;2023-05-11T03:36:38;101507.16;;;17.44;87.55
13015;BME280;6573;57.696;11.950;2023-05-11T03:39:07;101435.22;;;17.09;87.54
13015;BME280;6573;57.696;11.950;2023-05-11T03:41:38;101510.78;;;17.40;88.12
13015;BME280;6573;57.696;11.950;2023-05-11T03:44:09;101481.47;;;16.99;88.74
13015;BME280;6573;57.696;11.950;2023-05-11T03:46:43;101516.41;;;17.25;88.86
13015;BME280;6573;57.696;11.950;2023-05-11T03:49:14;101514.81;;;17.15;89.79
13015;BME280;6573;57.696;11.950;2023-05-11T03:51:43;101514.72;;;17.21;89.54
13015;BME280;6573;57.696;11.950;2023-05-11T03:54:12;101520.00;;;17.24;89.85
13015;BME280;6573;57.696;11.950;2023-05-11T03:56:41;101523.50;;;17.26;89.89
13015;BME280;6573;57.696;11.950;2023-05-11T03:59:13;101487.69;;;16.99;90.58
13015;BME280;6573;57.696;11.950;2023-05-11T04:01:46;101514.78;;;17.18;90.52
13015;BME280;6573;57.696;11.950;2023-05-11T04:04:19;101523.53;;;17.23;89.93
13015;BME280;6573;57.696;11.950;2023-05-11T04:06:47;101512.03;;;17.24;90.19
13015;BME280;6573;57.696;11.950;2023-05-11T04:09:16;101518.88;;;17.35;90.06
13015;BME280;6573;57.696;11.950;2023-05-11T04:11:44;101476.03;;;17.05;90.30
13015;BME280;6573;57.696;11.950;2023-05-11T04:14:13;101512.81;;;17.29;90.61
13015;BME280;6573;57.696;11.950;2023-05-11T04:16:47;101519.91;;;17.27;90.87
13015;BME280;6573;57.696;11.950;2023-05-11T04:19:16;101510.19;;;17.26;90.72
13015;BME280;6573;57.696;11.950;2023-05-11T04:21:45;101525.03;;;17.39;90.97
13015;BME280;6573;57.696;11.950;2023-05-11T04:24:14;101524.38;;;17.26;91.21
13015;BME280;6573;57.696;11.950;2023-05-11T04:26:42;101534.13;;;17.26;91.41
13015;BME280;6573;57.696;11.950;2023-05-11T04:29:10;101541.19;;;17.27;91.63
13015;BME280;6573;57.696;11.950;2023-05-11T04:31:39;101539.41;;;17.29;91.96
13015;BME280;6573;57.696;11.950;2023-05-11T04:34:09;101532.25;;;17.31;92.18
13015;BME280;6573;57.696;11.950;2023-05-11T04:36:37;101528.16;;;17.13;92.51
13015;BME280;6573;57.696;11.950;2023-05-11T04:39:06;101539.31;;;17.32;92.28
13015;BME280;6573;57.696;11.950;2023-05-11T04:41:34;101550.75;;;17.38;92.34
13015;BME280;6573;57.696;11.950;2023-05-11T04:44:03;101537.44;;;17.37;92.58
13015;BME280;6573;57.696;11.950;2023-05-11T04:46:33;101542.72;;;17.40;92.26
13015;BME280;6573;57.696;11.950;2023-05-11T04:49:02;101536.47;;;17.42;92.80
13015;BME280;6573;57.696;11.950;2023-05-11T04:51:32;101554.97;;;17.47;92.70
13015;BME280;6573;57.696;11.950;2023-05-11T04:54:01;101529.63;;;17.29;92.88
13015;BME280;6573;57.696;11.950;2023-05-11T04:56:32;101553.94;;;17.59;92.70
13015;BME280;6573;57.696;11.950;2023-05-11T04:59:04;101570.53;;;17.71;92.46
13015;BME280;6573;57.696;11.950;2023-05-11T05:01:33;101554.72;;;17.62;92.46
13015;BME280;6573;57.696;11.950;2023-05-11T05:04:08;101549.63;;;17.50;92.85
13015;BME280;6573;57.696;11.950;2023-05-11T05:06:39;101534.59;;;17.47;92.94
13015;BME280;6573;57.696;11.950;2023-05-11T05:09:07;101558.41;;;17.55;93.25
13015;BME280;6573;57.696;11.950;2023-05-11T05:11:37;101575.06;;;17.66;93.20
13015;BME280;6573;57.696;11.950;2023-05-11T05:14:05;101565.50;;;17.56;93.66
13015;BME280;6573;57.696;11.950;2023-05-11T05:16:33;101566.16;;;17.69;93.55
13015;BME280;6573;57.696;11.950;2023-05-11T05:19:04;101545.84;;;17.63;93.54
13015;BME280;6573;57.696;11.950;2023-05-11T05:21:33;101573.84;;;17.82;93.19
13015;BME280;6573;57.696;11.950;2023-05-11T05:24:03;101575.34;;;17.95;93.12
13015;BME280;6573;57.696;11.950;2023-05-11T05:26:35;101576.03;;;18.05;92.84
13015;BME280;6573;57.696;11.950;2023-05-11T05:29:03;101580.25;;;18.13;92.92
13015;BME280;6573;57.696;11.950;2023-05-11T05:31:32;101571.25;;;18.21;92.78
13015;BME280;6573;57.696;11.950;2023-05-11T05:34:02;101584.88;;;18.45;92.32
13015;BME280;6573;57.696;11.950;2023-05-11T05:36:30;101586.78;;;18.39;92.72
13015;BME280;6573;57.696;11.950;2023-05-11T05:39:04;101569.06;;;18.38;92.95
13015;BME280;6573;57.696;11.950;2023-05-11T05:41:35;101595.63;;;18.41;92.82
13015;BME280;6573;57.696;11.950;2023-05-11T05:44:04;101588.56;;;18.40;93.22
13015;BME280;6573;57.696;11.950;2023-05-11T05:46:32;101596.69;;;18.34;93.70
13015;BME280;6573;57.696;11.950;2023-05-11T05:49:01;101551.81;;;18.16;93.46
13015;BME280;6573;57.696;11.950;2023-05-11T05:51:30;101579.72;;;18.38;93.18
13015;BME280;6573;57.696;11.950;2023-05-11T05:54:01;101609.56;;;18.55;92.95
13015;BME280;6573;57.696;11.950;2023-05-11T05:56:34;101605.13;;;18.54;93.79
13015;BME280;6573;57.696;11.950;2023-05-11T05:59:02;101605.63;;;18.71;93.00
13015;BME280;6573;57.696;11.950;2023-05-11T06:01:31;101599.78;;;18.92;92.47
13015;BME280;6573;57.696;11.950;2023-05-11T06:04:03;101559.47;;;18.69;92.61
13015;BME280;6573;57.696;11.950;2023-05-11T06:06:35;101615.47;;;19.04;92.47
13015;BME280;6573;57.696;11.950;2023-05-11T06:09:03;101613.50;;;19.12;92.01
13015;BME280;6573;57.696;11.950;2023-05-11T06:11:31;101615.03;;;19.22;92.01
13015;BME280;6573;57.696;11.950;2023-05-11T06:14:04;101606.53;;;19.41;91.56
13015;BME280;6573;57.696;11.950;2023-05-11T06:16:32;101616.59;;;19.29;91.89
13015;BME280;6573;57.696;11.950;2023-05-11T06:19:01;101612.56;;;19.49;91.60
13015;BME280;6573;57.696;11.950;2023-05-11T06:21:33;101614.75;;;19.67;91.49
13015;BME280;6573;57.696;11.950;2023-05-11T06:24:02;101622.66;;;19.70;91.32
13015;BME280;6573;57.696;11.950;2023-05-11T06:26:32;101625.81;;;19.84;91.22
13015;BME280;6573;57.696;11.950;2023-05-11T06:29:01;101602.63;;;19.86;91.09
13015;BME280;6573;57.696;11.950;2023-05-11T06:31:33;101630.81;;;19.96;90.70
13015;BME280;6573;57.696;11.950;2023-05-11T06:34:02;101603.97;;;19.70;91.05
13015;BME280;6573;57.696;11.950;2023-05-11T06:36:34;101625.75;;;19.87;90.96
13015;BME280;6573;57.696;11.950;2023-05-11T06:39:02;101615.22;;;19.81;90.75
13015;BME280;6573;57.696;11.950;2023-05-11T06:41:32;101625.28;;;20.02;90.76
13015;BME280;6573;57.696;11.950;2023-05-11T06:44:00;101634.63;;;20.18;90.24
13015;BME280;6573;57.696;11.950;2023-05-11T06:46:30;101601.25;;;20.02;90.51
13015;BME280;6573;57.696;11.950;2023-05-11T06:49:01;101631.63;;;20.30;90.29
13015;BME280;6573;57.696;11.950;2023-05-11T06:51:30;101630.72;;;20.30;90.63
13015;BME280;6573;57.696;11.950;2023-05-11T06:54:01;101621.13;;;20.24;90.32
13015;BME280;6573;57.696;11.950;2023-05-11T06:56:30;101632.19;;;20.41;90.66
13015;BME280;6573;57.696;11.950;2023-05-11T06:58:59;101631.06;;;20.48;90.92
13015;BME280;6573;57.696;11.950;2023-05-11T07:01:31;101635.84;;;20.37;90.77
13015;BME280;6573;57.696;11.950;2023-05-11T07:04:00;101638.72;;;20.31;90.82
13015;BME280;6573;57.696;11.950;2023-05-11T07:06:31;101645.81;;;20.32;91.02
13015;BME280;6573;57.696;11.950;2023-05-11T07:09:02;101647.28;;;20.42;90.65
13015;BME280;6573;57.696;11.950;2023-05-11T07:11:31;101624.63;;;20.26;90.57
13015;BME280;6573;57.696;11.950;2023-05-11T07:14:02;101639.91;;;20.50;90.23
13015;BME280;6573;57.696;11.950;2023-05-11T07:16:34;101629.59;;;20.38;90.21
13015;BME280;6573;57.696;11.950;2023-05-11T07:19:04;101635.25;;;20.57;90.12
13015;BME280;6573;57.696;11.950;2023-05-11T07:21:37;101651.31;;;20.85;89.61
13015;BME280;6573;57.696;11.950;2023-05-11T07:24:05;101622.81;;;20.84;89.45
13015;BME280;6573;57.696;11.950;2023-05-11T07:26:37;101637.09;;;20.83;89.58
13015;BME280;6573;57.696;11.950;2023-05-11T07:29:05;101641.66;;;20.79;89.66
13015;BME280;6573;57.696;11.950;2023-05-11T07:31:37;101656.47;;;20.91;89.55
13015;BME280;6573;57.696;11.950;2023-05-11T07:34:05;101638.22;;;20.76;89.88
13015;BME280;6573;57.696;11.950;2023-05-11T07:36:34;101649.34;;;20.90;89.73
13015;BME280;6573;57.696;11.950;2023-05-11T07:39:02;101661.50;;;21.00;89.68
13015;BME280;6573;57.696;11.950;2023-05-11T07:41:31;101649.25;;;20.93;89.66
13015;BME280;6573;57.696;11.950;2023-05-11T07:44:00;101637.19;;;20.80;89.70
13015;BME280;6573;57.696;11.950;2023-05-11T07:46:28;101669.22;;;21.10;89.91
13015;BME280;6573;57.696;11.950;2023-05-11T07:48:58;101658.81;;;21.78;89.97
13015;BME280;6573;57.696;11.950;2023-05-11T07:51:44;101659.00;;;22.46;90.30
13015;BME280;6573;57.696;11.950;2023-05-11T07:54:12;101650.97;;;22.70;89.92
13015;BME280;6573;57.696;11.950;2023-05-11T07:56:41;101658.13;;;23.12;89.01
13015;BME280;6573;57.696;11.950;2023-05-11T07:59:09;101656.81;;;23.23;88.41
13015;BME280;6573;57.696;11.950;2023-05-11T08:01:38;101661.84;;;23.73;87.77
13015;BME280;6573;57.696;11.950;2023-05-11T08:04:07;101662.28;;;23.63;86.68
13015;BME280;6573;57.696;11.950;2023-05-11T08:06:36;101654.22;;;23.43;85.45
13015;BME280;6573;57.696;11.950;2023-05-11T08:09:07;101657.78;;;23.63;84.43
13015;BME280;6573;57.696;11.950;2023-05-11T08:11:35;101658.94;;;23.58;83.64
13015;BME280;6573;57.696;11.950;2023-05-11T08:14:04;101651.63;;;23.81;82.81
13015;BME280;6573;57.696;11.950;2023-05-11T08:16:32;101663.38;;;23.79;82.04
13015;BME280;6573;57.696;11.950;2023-05-11T08:19:03;101661.88;;;23.72;81.63
13015;BME280;6573;57.696;11.950;2023-05-11T08:21:33;101667.31;;;23.29;82.45
13015;BME280;6573;57.696;11.950;2023-05-11T08:24:01;101675.19;;;23.33;82.40
13015;BME280;6573;57.696;11.950;2023-05-11T08:26:30;101665.50;;;23.07;82.50
13015;BME280;6573;57.696;11.950;2023-05-11T08:29:01;101673.72;;;23.04;82.96
13015;BME280;6573;57.696;11.950;2023-05-11T08:31:30;101677.88;;;23.11;82.85
13015;BME280;6573;57.696;11.950;2023-05-11T08:34:01;101679.53;;;22.92;83.28
13015;BME280;6573;57.696;11.950;2023-05-11T08:36:35;101673.44;;;23.10;83.13
13015;BME280;6573;57.696;11.950;2023-05-11T08:39:06;101692.53;;;23.25;82.74
13015;BME280;6573;57.696;11.950;2023-05-11T08:41:34;101662.59;;;23.13;82.64
13015;BME280;6573;57.696;11.950;2023-05-11T08:44:03;101689.31;;;23.38;82.59
13015;BME280;6573;57.696;11.950;2023-05-11T08:46:34;101684.56;;;23.45;82.39
13015;BME280;6573;57.696;11.950;2023-05-11T08:49:03;101687.16;;;23.25;83.15
13015;BME280;6573;57.696;11.950;2023-05-11T08:51:32;101694.63;;;23.40;82.81
13015;BME280;6573;57.696;11.950;2023-05-11T08:54:02;101684.03;;;23.37;82.67
13015;BME280;6573;57.696;11.950;2023-05-11T08:56:33;101694.78;;;23.57;82.32
13015;BME280;6573;57.696;11.950;2023-05-11T08:59:03;101683.25;;;23.75;82.07
13015;BME280;6573;57.696;11.950;2023-05-11T09:01:34;101687.63;;;23.98;81.77
13015;BME280;6573;57.696;11.950;2023-05-11T09:04:03;101689.97;;;23.85;81.56
13015;BME280;6573;57.696;11.950;2023-05-11T09:06:33;101687.53;;;23.99;81.90
13015;BME280;6573;57.696;11.950;2023-05-11T09:09:03;101691.31;;;24.35;80.92
13015;BME280;6573;57.696;11.950;2023-05-11T09:11:31;101688.66;;;24.15;80.66
13015;BME280;6573;57.696;11.950;2023-05-11T09:14:00;101693.19;;;23.93;81.38
13015;BME280;6573;57.696;11.950;2023-05-11T09:16:31;101679.75;;;23.73;81.39
13015;BME280;6573;57.696;11.950;2023-05-11T09:19:03;101694.28;;;23.69;82.01
13015;BME280;6573;57.696;11.950;2023-05-11T09:21:32;101699.63;;;23.89;81.37
13015;BME280;6573;57.696;11.950;2023-05-11T09:24:05;101679.88;;;23.70;81.91
13015;BME280;6573;57.696;11.950;2023-05-11T09:26:35;101691.72;;;23.86;81.74
13015;BME280;6573;57.696;11.950;2023-05-11T09:29:03;101696.41;;;23.61;82.99
13015;BME280;6573;57.696;11.950;2023-05-11T09:31:39;101688.91;;;23.26;85.00
13015;BME280;6573;57.696;11.950;2023-05-11T09:34:10;101688.91;;;23.69;84.24
13015;BME280;6573;57.696;11.950;2023-05-11T09:36:39;101691.94;;;23.40;85.23
13015;BME280;6573;57.696;11.950;2023-05-11T09:39:09;101671.63;;;23.33;84.96
13015;BME280;6573;57.696;11.950;2023-05-11T09:41:45;101695.44;;;23.62;84.86
13015;BME280;6573;57.696;11.950;2023-05-11T09:44:15;101684.34;;;23.91;83.47
13015;BME280;6573;57.696;11.950;2023-05-11T09:46:44;101691.44;;;23.72;83.92
13015;BME280;6573;57.696;11.950;2023-05-11T09:49:13;101689.16;;;23.83;83.69
13015;BME280;6573;57.696;11.950;2023-05-11T09:51:41;101677.75;;;23.78;84.02
13015;BME280;6573;57.696;11.950;2023-05-11T09:54:19;101697.63;;;24.14;83.35
13015;BME280;6573;57.696;11.950;2023-05-11T09:56:49;101698.44;;;23.96;83.46
13015;BME280;6573;57.696;11.950;2023-05-11T09:59:39;101701.50;;;24.48;82.57
13015;BME280;6573;57.696;11.950;2023-05-11T10:02:18;101698.75;;;24.86;81.82
13015;BME280;6573;57.696;11.950;2023-05-11T10:04:47;101685.25;;;24.88;81.31
13015;BME280;6573;57.696;11.950;2023-05-11T10:07:27;101670.06;;;24.67;81.30
13015;BME280;6573;57.696;11.950;2023-05-11T10:09:59;101703.56;;;24.80;81.31
13015;BME280;6573;57.696;11.950;2023-05-11T10:12:28;101697.88;;;24.86;81.16
13015;BME280;6573;57.696;11.950;2023-05-11T10:15:00;101695.53;;;24.60;80.56
13015;BME280;6573;57.696;11.950;2023-05-11T10:17:32;101693.50;;;24.65;81.11
13015;BME280;6573;57.696;11.950;2023-05-11T10:20:02;101702.53;;;25.01;80.34
13015;BME280;6573;57.696;11.950;2023-05-11T10:22:32;101696.81;;;24.90;80.75
13015;BME280;6573;57.696;11.950;2023-05-11T10:25:02;101700.19;;;25.12;80.35
13015;BME280;6573;57.696;11.950;2023-05-11T10:27:32;101665.72;;;25.01;80.02
13015;BME280;6573;57.696;11.950;2023-05-11T10:30:04;101703.22;;;25.23;79.54
13015;BME280;6573;57.696;11.950;2023-05-11T10:32:37;101695.34;;;25.37;79.37
13015;BME280;6573;57.696;11.950;2023-05-11T10:35:06;101704.56;;;24.96;80.34
13015;BME280;6573;57.696;11.950;2023-05-11T10:37:49;101706.81;;;24.68;80.89
13015;BME280;6573;57.696;11.950;2023-05-11T10:40:19;101698.38;;;24.18;81.68
13015;BME280;6573;57.696;11.950;2023-05-11T10:46:06;101706.31;;;23.39;83.79
13015;BME280;6573;57.696;11.950;2023-05-11T10:49:01;101704.91;;;23.50;83.41
13015;BME280;6573;57.696;11.950;2023-05-11T10:51:57;101707.31;;;23.98;82.82
13015;BME280;6573;57.696;11.950;2023-05-11T10:54:58;101710.25;;;23.72;82.29
13015;BME280;6573;57.696;11.950;2023-05-11T10:57:47;101714.41;;;23.59;82.78
13015;BME280;6573;57.696;11.950;2023-05-11T11:00:44;101704.78;;;24.15;81.92
13015;BME280;6573;57.696;11.950;2023-05-11T11:03:21;101707.31;;;24.38;81.14
13015;BME280;6573;57.696;11.950;2023-05-11T11:05:49;101708.34;;;24.55;80.70
13015;BME280;6573;57.696;11.950;2023-05-11T11:08:19;101706.38;;;24.58;80.41
13015;BME280;6573;57.696;11.950;2023-05-11T11:10:50;101709.53;;;24.86;79.71
13015;BME280;6573;57.696;11.950;2023-05-11T11:13:22;101714.31;;;25.17;79.31
13015;BME280;6573;57.696;11.950;2023-05-11T11:16:10;101714.16;;;25.20;78.81
13015;BME280;6573;57.696;11.950;2023-05-11T11:18:42;101718.69;;;25.01;78.22
13015;BME280;6573;57.696;11.950;2023-05-11T11:21:10;101712.13;;;24.51;79.83
13015;BME280;6573;57.696;11.950;2023-05-11T11:23:42;101718.47;;;24.68;79.43
13015;BME280;6573;57.696;11.950;2023-05-11T11:26:12;101724.34;;;24.58;79.72
13015;BME280;6573;57.696;11.950;2023-05-11T11:29:08;101719.81;;;24.78;79.23
13015;BME280;6573;57.696;11.950;2023-05-11T11:31:40;101717.78;;;24.44;79.37
13015;BME280;6573;57.696;11.950;2023-05-11T11:34:31;101719.66;;;24.42;79.92
13015;BME280;6573;57.696;11.950;2023-05-11T11:37:02;101723.00;;;24.48;79.17
13015;BME280;6573;57.696;11.950;2023-05-11T11:39:48;101727.38;;;24.69;79.55
13015;BME280;6573;57.696;11.950;2023-05-11T11:42:33;101727.56;;;24.66;79.66
13015;BME280;6573;57.696;11.950;2023-05-11T11:45:32;101733.53;;;24.91;77.98
13015;BME280;6573;57.696;11.950;2023-05-11T11:48:11;101731.50;;;24.77;78.83
13015;BME280;6573;57.696;11.950;2023-05-11T11:50:44;101734.94;;;24.99;78.17
13015;BME280;6573;57.696;11.950;2023-05-11T11:56:44;101728.47;;;25.39;77.38
13015;BME280;6573;57.696;11.950;2023-05-11T11:59:13;101735.00;;;24.98;77.71
13015;BME280;6573;57.696;11.950;2023-05-11T12:01:44;101736.41;;;24.88;78.14
13015;BME280;6573;57.696;11.950;2023-05-11T12:04:55;101734.41;;;24.91;77.59
13015;BME280;6573;57.696;11.950;2023-05-11T12:07:24;101743.16;;;24.78;78.03
13015;BME280;6573;57.696;11.950;2023-05-11T12:09:54;101740.81;;;24.89;77.50
13015;BME280;6573;57.696;11.950;2023-05-11T12:12:23;101733.84;;;24.85;77.57
13015;BME280;6573;57.696;11.950;2023-05-11T12:14:52;101735.97;;;24.77;77.53
13015;BME280;6573;57.696;11.950;2023-05-11T12:17:26;101709.88;;;24.79;77.14
13015;BME280;6573;57.696;11.950;2023-05-11T12:20:10;101737.25;;;25.07;76.73
13015;BME280;6573;57.696;11.950;2023-05-11T12:22:40;101729.91;;;24.92;76.26
13015;BME280;6573;57.696;11.950;2023-05-11T12:25:09;101745.63;;;24.82;75.63
13015;BME280;6573;57.696;11.950;2023-05-11T12:27:48;101740.38;;;24.79;76.00
13015;BME280;6573;57.696;11.950;2023-05-11T12:30:21;101745.19;;;24.91;76.27
13015;BME280;6573;57.696;11.950;2023-05-11T12:32:51;101729.72;;;24.58;76.25
13015;BME280;6573;57.696;11.950;2023-05-11T12:35:23;101740.94;;;24.86;76.28
13015;BME280;6573;57.696;11.950;2023-05-11T12:37:56;101718.25;;;24.73;75.37
13015;BME280;6573;57.696;11.950;2023-05-11T12:40:24;101749.56;;;24.94;74.88
13015;BME280;6573;57.696;11.950;2023-05-11T12:42:54;101739.06;;;25.06;74.92
13015;BME280;6573;57.696;11.950;2023-05-11T12:45:24;101739.13;;;24.86;74.40
13015;BME280;6573;57.696;11.950;2023-05-11T12:47:55;101733.97;;;24.82;74.34
13015;BME280;6573;57.696;11.950;2023-05-11T12:50:24;101747.38;;;25.02;74.21
13015;BME280;6573;57.696;11.950;2023-05-11T12:52:53;101752.03;;;24.80;73.92
13015;BME280;6573;57.696;11.950;2023-05-11T12:55:28;101740.47;;;24.76;73.93
13015;BME280;6573;57.696;11.950;2023-05-11T12:58:06;101734.41;;;25.10;73.59
13015;BME280;6573;57.696;11.950;2023-05-11T13:00:35;101744.44;;;25.25;73.35
13015;BME280;6573;57.696;11.950;2023-05-11T13:03:09;101740.94;;;25.23;72.98
13015;BME280;6573;57.696;11.950;2023-05-11T13:05:39;101743.09;;;25.34;73.17
13015;BME280;6573;57.696;11.950;2023-05-11T13:08:07;101736.38;;;25.61;72.67
13015;BME280;6573;57.696;11.950;2023-05-11T13:10:37;101735.81;;;25.54;72.04
13015;BME280;6573;57.696;11.950;2023-05-11T13:13:06;101734.38;;;25.47;72.00
13015;BME280;6573;57.696;11.950;2023-05-11T13:15:49;101750.25;;;25.35;71.44
13015;BME280;6573;57.696;11.950;2023-05-11T13:18:19;101708.31;;;25.48;71.65
13015;BME280;6573;57.696;11.950;2023-05-11T13:21:03;101704.63;;;25.67;70.80
13015;BME280;6573;57.696;11.950;2023-05-11T13:23:35;101690.66;;;25.77;70.80